Time;durP1;ratioP1;P1;durP2;ratioP2;P2;SDS_P1;SDS_P2;PMS_P1;PMS_P2;Temp;Humidity;BMP_temperature;BMP_pressure;BME280_temperature;BME280_humidity;BME280_pressure;Samples;Min_cycle;Max_cycle;Signal;HPM_P1;HPM_P2
2022/06/23 00:03:54;;;;;;;0.60;0.50;;;;;;;22.10;38.03;101041.53;16141964;19;130072;-68
2022/06/23 00:09:28;;;;;;;1.85;0.75;;;;;;;22.10;38.19;101030.38;16140510;19;131058;-68
2022/06/23 00:14:53;;;;;;;2.17;0.57;;;;;;;22.09;38.15;101028.69;16139142;19;130607;-67
2022/06/23 00:20:30;;;;;;;0.60;0.60;;;;;;;22.09;38.18;101034.28;16141855;19;130799;-68
2022/06/23 00:26:11;;;;;;;1.85;0.70;;;;;;;22.09;38.28;101028.69;16142012;19;130398;-68
2022/06/23 00:31:39;;;;;;;1.27;0.50;;;;;;;22.07;38.18;101022.56;16138979;19;129540;-68
2022/06/23 00:37:13;;;;;;;1.45;0.55;;;;;;;22.06;37.93;101012.50;16137149;19;130080;-68
2022/06/23 00:42:50;;;;;;;1.55;0.60;;;;;;;22.06;38.13;101012.50;16140763;19;130019;-68
2022/06/23 00:48:14;;;;;;;1.60;0.80;;;;;;;22.04;38.07;101020.28;16138936;19;129717;-68
2022/06/23 00:53:48;;;;;;;1.58;0.70;;;;;;;22.04;38.38;101014.72;16136113;19;129603;-68
2022/06/23 00:59:20;;;;;;;0.82;0.65;;;;;;;22.05;37.79;101013.63;16140606;19;130509;-68
2022/06/23 01:05:00;;;;;;;0.82;0.68;;;;;;;22.05;37.74;101004.44;16140989;19;129740;-68
2022/06/23 01:10:32;;;;;;;2.13;0.70;;;;;;;22.03;38.02;101010.25;16138101;19;130031;-68
2022/06/23 01:16:05;;;;;;;0.85;0.70;;;;;;;22.02;38.13;101011.38;16134248;19;130704;-67
2022/06/23 01:21:52;;;;;;;1.70;0.80;;;;;;;22.01;37.81;101015.28;16134747;19;129865;-67
2022/06/23 01:27:35;;;;;;;1.58;0.63;;;;;;;22.02;38.22;101010.53;16138778;19;130649;-67
2022/06/23 01:33:22;;;;;;;1.05;0.65;;;;;;;22.02;37.99;101014.16;16131656;19;130659;-68
2022/06/23 01:38:59;;;;;;;1.33;0.60;;;;;;;22.00;38.00;101035.88;16136993;19;130058;-68
2022/06/23 01:44:46;;;;;;;1.20;0.70;;;;;;;22.00;37.87;101024.75;16140165;19;129903;-68
2022/06/23 01:50:13;;;;;;;;;;;;;;;21.96;38.26;101024.44;16137964;19;130447;-68
2022/06/23 01:56:07;;;;;;;0.60;0.60;;;;;;;22.01;38.46;101029.22;16140348;19;129348;-68
2022/06/23 02:01:52;;;;;;;1.75;0.60;;;;;;;21.98;38.41;101018.59;16142411;19;129754;-68
2022/06/23 02:07:22;;;;;;;0.55;0.38;;;;;;;21.98;38.37;101015.81;16137228;19;129238;-67
2022/06/23 02:12:49;;;;;;;1.05;0.50;;;;;;;21.98;38.30;101024.16;16135504;19;129616;-67
2022/06/23 02:18:15;;;;;;;1.00;0.50;;;;;;;21.98;38.23;101016.63;16135205;19;130180;-67
2022/06/23 02:24:05;;;;;;;1.67;0.63;;;;;;;21.99;38.01;101009.13;16147359;19;129666;-67
2022/06/23 02:29:45;;;;;;;3.63;0.70;;;;;;;21.99;38.25;101017.50;16147821;19;130418;-68
2022/06/23 02:35:16;;;;;;;0.65;0.60;;;;;;;21.98;38.51;101004.66;16145708;19;129673;-67
2022/06/23 02:40:45;;;;;;;1.48;0.60;;;;;;;21.98;38.13;101001.88;16148378;19;130845;-67
2022/06/23 02:46:07;;;;;;;1.23;0.50;;;;;;;21.97;38.21;100994.63;16146747;19;129938;-67
2022/06/23 02:52:01;;;;;;;1.17;0.70;;;;;;;21.97;38.56;100992.66;16146100;19;130605;-67
2022/06/23 02:57:38;;;;;;;2.05;0.70;;;;;;;21.97;38.01;100984.31;16149126;19;129024;-67
2022/06/23 03:03:27;;;;;;;1.23;0.70;;;;;;;21.97;38.12;100980.69;16151564;19;129572;-67
2022/06/23 03:09:08;;;;;;;1.00;0.50;;;;;;;21.95;38.24;100968.97;16148202;19;130714;-67
2022/06/23 03:14:54;;;;;;;1.15;0.60;;;;;;;21.96;38.19;100974.31;16151448;19;129868;-66
2022/06/23 03:20:34;;;;;;;1.55;0.90;;;;;;;21.95;38.40;100963.41;16159417;19;130364;-67
2022/06/23 03:26:07;;;;;;;1.45;0.70;;;;;;;21.94;37.84;100965.38;16229989;19;129379;-66
2022/06/23 03:31:37;;;;;;;0.90;0.60;;;;;;;21.94;38.26;100964.50;16224330;19;128562;-67
2022/06/23 03:37:06;;;;;;;1.85;0.38;;;;;;;21.95;38.38;100974.53;16224583;19;129177;-66
2022/06/23 03:42:37;;;;;;;1.00;0.55;;;;;;;21.94;38.23;100964.50;16231016;19;129228;-66
2022/06/23 03:48:33;;;;;;;2.38;0.70;;;;;;;21.94;38.47;100970.09;16229699;19;128106;-67
2022/06/23 03:54:04;;;;;;;2.63;0.57;;;;;;;21.93;38.19;100968.41;16223542;19;129137;-67
2022/06/23 04:00:00;;;;;;;0.52;0.50;;;;;;;21.94;38.59;100961.72;16225460;19;129550;-66
2022/06/23 04:05:39;;;;;;;3.17;0.73;;;;;;;21.92;38.38;100966.72;16226033;19;129177;-67
2022/06/23 04:16:58;;;;;;;1.95;0.50;;;;;;;21.91;38.08;100951.16;16226364;19;129473;-66
2022/06/23 04:22:30;;;;;;;1.67;0.60;;;;;;;21.92;38.32;100945.28;16225141;19;128794;-67
2022/06/23 04:28:00;;;;;;;0.82;0.30;;;;;;;21.92;38.63;100947.22;16225268;19;129028;-67
2022/06/23 04:33:24;;;;;;;2.33;0.50;;;;;;;21.91;38.17;100959.50;16219660;19;127895;-67
2022/06/23 04:39:01;;;;;;;0.90;0.60;;;;;;;21.92;38.42;100959.22;16224309;19;129015;-67
2022/06/23 04:44:27;;;;;;;1.45;0.50;;;;;;;21.92;38.24;100966.72;16222422;19;129342;-67
2022/06/23 04:49:51;;;;;;;0.65;0.40;;;;;;;21.90;38.27;100980.09;16223173;19;129445;-67
2022/06/23 04:55:25;;;;;;;1.20;0.40;;;;;;;21.92;38.73;100975.06;16221502;19;129125;-67
2022/06/23 05:00:50;;;;;;;1.73;0.50;;;;;;;21.90;38.55;100968.97;16222408;19;129428;-67
2022/06/23 05:06:22;;;;;;;0.60;0.50;;;;;;;21.92;38.56;100977.84;16223574;19;129512;-67
2022/06/23 05:11:55;;;;;;;2.88;0.60;;;;;;;21.92;38.42;100978.72;16219132;19;128134;-66
2022/06/23 05:17:22;;;;;;;0.47;0.40;;;;;;;21.92;38.54;100989.84;16221799;19;129562;-67
2022/06/23 05:22:47;;;;;;;0.45;0.43;;;;;;;21.91;38.55;100990.13;16220548;19;128551;-66
2022/06/23 05:28:31;;;;;;;2.53;0.60;;;;;;;21.93;38.47;100985.13;16220623;19;128792;-67
2022/06/23 05:33:55;;;;;;;3.10;0.45;;;;;;;21.91;38.73;100985.38;16214691;19;129407;-67
2022/06/23 05:39:34;;;;;;;1.30;0.60;;;;;;;21.93;38.89;100985.97;16220497;19;129170;-67
2022/06/23 05:45:01;;;;;;;3.10;0.50;;;;;;;21.91;39.02;100988.19;16219150;19;129205;-66
2022/06/23 05:50:46;;;;;;;1.75;0.50;;;;;;;21.94;38.93;100992.38;16216936;19;129634;-67
2022/06/23 05:56:20;;;;;;;2.03;0.50;;;;;;;21.95;38.81;100994.03;16225644;19;128864;-64
2022/06/23 06:02:05;;;;;;;3.50;0.80;;;;;;;21.97;39.12;100981.53;16233070;19;129051;-65
2022/06/23 06:07:33;;;;;;;3.70;0.77;;;;;;;21.98;38.63;100987.94;16234383;19;129810;-64
2022/06/23 06:12:56;;;;;;;5.32;0.93;;;;;;;22.01;38.90;100983.78;16229756;19;129185;-64
2022/06/23 06:18:28;;;;;;;5.57;1.00;;;;;;;22.02;39.19;100983.53;16235516;19;129533;-65
2022/06/23 06:24:17;;;;;;;5.57;1.10;;;;;;;22.03;39.23;100979.59;16232707;19;128173;-63
2022/06/23 06:29:43;;;;;;;3.95;1.50;;;;;;;22.04;39.69;100986.03;16211554;19;129412;-64
2022/06/23 06:35:31;;;;;;;3.42;1.70;;;;;;;22.05;39.65;100987.72;16133397;19;129856;-65
2022/06/23 06:40:56;;;;;;;8.18;2.22;;;;;;;22.06;39.97;100973.50;16139404;19;128973;-64
2022/06/23 06:46:18;;;;;;;9.32;2.55;;;;;;;22.08;40.46;100985.22;16143727;19;130460;-64
2022/06/23 06:51:40;;;;;;;7.55;2.40;;;;;;;22.10;40.63;100985.81;16141263;19;129710;-65
2022/06/23 06:57:05;;;;;;;7.22;2.47;;;;;;;22.12;41.02;100997.53;16139774;19;130397;-65
2022/06/23 07:02:50;;;;;;;8.83;2.03;;;;;;;22.16;41.44;100994.19;16148477;19;129526;-66
2022/06/23 07:08:15;;;;;;;7.63;2.60;;;;;;;22.18;41.51;100989.19;16148471;19;130009;-65
2022/06/23 07:13:42;;;;;;;8.88;3.03;;;;;;;22.19;41.64;100985.28;16144304;19;130806;-65
2022/06/23 07:19:14;;;;;;;11.13;2.45;;;;;;;22.22;41.89;100991.19;16139154;19;129731;-65
2022/06/23 07:24:51;;;;;;;9.07;2.60;;;;;;;22.25;41.94;100989.81;16146845;19;130043;-65
2022/06/23 07:30:18;;;;;;;7.53;2.45;;;;;;;22.25;41.92;100998.19;16144250;19;129611;-64
2022/06/23 07:36:00;;;;;;;4.53;2.20;;;;;;;22.30;42.18;100989.84;16138880;19;129608;-64
2022/06/23 07:41:56;;;;;;;6.78;2.40;;;;;;;22.31;42.43;100991.53;16145316;19;128912;-64
2022/06/23 07:47:19;;;;;;;4.40;2.03;;;;;;;22.32;42.54;100997.94;16146004;19;128999;-65
2022/06/23 07:52:43;;;;;;;11.48;2.65;;;;;;;22.33;42.40;101000.44;16144401;19;129834;-64
2022/06/23 07:58:06;;;;;;;5.07;2.08;;;;;;;22.36;42.77;100999.91;16145043;19;129223;-64
2022/06/23 08:04:19;;;;;;;9.85;2.22;;;;;;;22.37;43.11;101000.75;16144638;19;128721;-64
2022/06/23 08:09:46;;;;;;;4.70;2.15;;;;;;;22.39;43.12;101002.19;16134897;19;129000;-64
2022/06/23 08:21:15;;;;;;;6.33;2.37;;;;;;;22.42;43.58;101009.97;16134271;19;129494;-64
2022/06/23 08:26:39;;;;;;;5.03;2.33;;;;;;;22.43;43.69;101011.66;16136111;19;129274;-63
2022/06/23 08:32:01;;;;;;;4.53;2.20;;;;;;;22.46;43.92;101007.50;16132224;19;129657;-63
2022/06/23 08:37:24;;;;;;;6.72;3.13;;;;;;;22.48;44.27;100998.88;16127169;19;129371;-66
2022/06/23 08:43:02;;;;;;;5.65;2.53;;;;;;;22.50;44.69;100988.28;16128935;19;129937;-66
2022/06/23 08:48:33;;;;;;;5.20;2.22;;;;;;;22.53;44.82;101001.66;16138705;19;130491;-63
2022/06/23 08:54:07;;;;;;;7.25;2.70;;;;;;;22.52;44.88;101009.19;16138507;19;129579;-64
2022/06/23 08:59:43;;;;;;;6.78;2.50;;;;;;;22.50;44.88;101016.16;16138943;19;129311;-65
2022/06/23 09:05:19;;;;;;;6.22;2.67;;;;;;;22.52;45.39;101014.78;16140010;19;129610;-63
2022/06/23 09:11:09;;;;;;;8.63;2.95;;;;;;;22.52;45.60;101008.38;16141694;19;129270;-65
2022/06/23 09:16:43;;;;;;;6.68;2.90;;;;;;;22.54;45.55;101003.34;16131722;19;130415;-63
2022/06/23 09:22:41;;;;;;;8.40;2.90;;;;;;;22.55;45.82;100996.66;16139206;19;129791;-69
2022/06/23 09:28:13;;;;;;;7.90;2.92;;;;;;;22.57;46.23;100986.06;16136735;19;129037;-70
2022/06/23 09:33:46;;;;;;;7.03;2.70;;;;;;;22.56;46.03;100981.59;16133881;19;129913;-71
2022/06/23 09:39:23;;;;;;;7.63;3.08;;;;;;;22.58;46.62;100984.97;16132411;19;129837;-71
2022/06/23 09:45:14;;;;;;;6.00;2.85;;;;;;;22.58;46.44;100979.41;16140171;19;129494;-70
2022/06/23 09:50:54;;;;;;;6.22;2.53;;;;;;;22.59;46.78;100981.06;16138766;19;129399;-73
2022/06/23 09:56:36;;;;;;;5.82;2.63;;;;;;;22.61;46.23;100973.28;16132479;19;129682;-73
2022/06/23 10:02:25;;;;;;;7.68;2.72;;;;;;;22.62;46.55;100983.31;16136978;19;129265;-72
2022/06/23 10:08:08;;;;;;;5.93;2.55;;;;;;;22.62;46.47;100985.25;16138495;19;132678;-72
2022/06/23 10:13:48;;;;;;;4.25;2.38;;;;;;;22.63;46.73;100979.44;16133519;19;129536;-68
2022/06/23 10:19:09;;;;;;;6.72;3.25;;;;;;;22.64;46.69;100988.63;16137632;19;129096;-72
2022/06/23 10:24:49;;;;;;;5.40;2.67;;;;;;;22.66;46.52;100987.22;16137051;19;129902;-70
2022/06/23 10:30:27;;;;;;;4.78;2.88;;;;;;;22.65;46.72;100988.34;16135631;19;129745;-69
2022/06/23 10:36:27;;;;;;;4.63;2.30;;;;;;;22.68;46.84;100990.59;16130836;19;130529;-72
2022/06/23 10:42:13;;;;;;;6.40;2.88;;;;;;;22.69;46.41;100978.31;16139626;19;129275;-69
2022/06/23 10:47:54;;;;;;;;;;;;;;;22.67;46.73;100976.94;16152168;19;130841;-68
2022/06/23 10:53:52;;;;;;;5.03;2.67;;;;;;;22.71;46.47;100961.31;16147369;19;129835;-70
2022/06/23 10:59:55;;;;;;;4.57;2.88;;;;;;;22.69;46.85;100958.81;16148977;19;129630;-72
2022/06/23 11:06:01;;;;;;;4.30;2.65;;;;;;;22.69;47.00;100939.28;16140281;19;130762;-72
2022/06/23 11:11:32;;;;;;;6.25;2.85;;;;;;;22.73;46.42;100940.41;16137437;19;129482;-73
2022/06/23 11:17:12;;;;;;;6.32;2.70;;;;;;;22.74;46.70;100938.44;16140086;19;129062;-72
2022/06/23 11:22:45;;;;;;;5.43;2.65;;;;;;;22.76;46.63;100927.03;16139372;19;129709;-68
2022/06/23 11:28:24;;;;;;;5.93;2.60;;;;;;;22.77;46.81;100931.50;16138255;19;129187;-72
2022/06/23 11:34:25;;;;;;;4.22;2.70;;;;;;;22.78;46.51;100928.44;16136914;19;129999;-72
2022/06/23 11:39:59;;;;;;;3.28;2.38;;;;;;;22.80;46.51;100925.34;16142325;19;129734;-72
2022/06/23 11:46:04;;;;;;;5.38;2.50;;;;;;;22.81;46.39;100922.31;16148551;19;128801;-72
2022/06/23 11:52:06;;;;;;;4.72;2.42;;;;;;;22.83;46.24;100919.25;16143400;19;129311;-70
2022/06/23 11:57:44;;;;;;;7.90;2.65;;;;;;;22.83;46.57;100913.66;16146943;19;129118;-69
2022/06/23 12:03:32;;;;;;;6.93;2.78;;;;;;;22.84;46.51;100909.75;16146115;19;129180;-68
2022/06/23 12:09:06;;;;;;;5.68;2.70;;;;;;;22.87;46.41;100912.81;16146977;19;129417;-73
2022/06/23 12:14:29;;;;;;;7.90;2.72;;;;;;;22.87;46.47;100903.63;16141097;19;129229;-68
2022/06/23 12:20:02;;;;;;;2.88;2.22;;;;;;;22.91;46.09;100903.94;16144402;19;129057;-68
2022/06/23 12:25:50;;;;;;;6.00;2.42;;;;;;;22.92;46.17;100891.69;16141943;19;129740;-64
2022/06/23 12:31:30;;;;;;;6.55;2.25;;;;;;;22.92;46.37;100900.88;16137432;19;129560;-65
2022/06/23 12:36:58;;;;;;;6.47;2.20;;;;;;;22.95;46.19;100894.75;16138344;19;129298;-64
2022/06/23 12:42:32;;;;;;;8.50;2.42;;;;;;;22.96;46.11;100888.06;16142243;19;129261;-65
2022/06/23 12:48:00;;;;;;;5.25;2.35;;;;;;;22.97;46.17;100878.56;16142051;19;128988;-65
2022/06/23 12:53:42;;;;;;;10.13;2.70;;;;;;;22.98;46.42;100877.47;16138030;19;129739;-65
2022/06/23 12:59:07;;;;;;;3.53;2.10;;;;;;;22.98;46.12;100877.47;16142501;19;130629;-65
2022/06/23 13:04:32;;;;;;;9.43;2.20;;;;;;;22.99;46.14;100873.56;16140710;19;128840;-65
2022/06/23 13:10:04;;;;;;;4.37;2.07;;;;;;;23.02;46.11;100866.56;16136849;19;130120;-65
2022/06/23 13:15:45;;;;;;;6.67;1.80;;;;;;;23.04;45.91;100861.56;16133304;19;130207;-65
2022/06/23 13:21:25;;;;;;;13.82;1.95;;;;;;;23.03;45.62;100857.91;16134943;19;129587;-64
2022/06/23 13:27:01;;;;;;;8.45;2.53;;;;;;;23.03;45.86;100852.34;16137231;19;129200;-64
2022/06/23 13:32:29;;;;;;;11.53;2.80;;;;;;;23.05;45.83;100849.28;16138563;19;129621;-64
2022/06/23 13:37:59;;;;;;;7.88;1.88;;;;;;;23.08;45.70;100864.63;16131198;19;129312;-64
2022/06/23 13:43:39;;;;;;;7.97;2.05;;;;;;;23.10;46.06;100849.28;16138361;19;129420;-64
2022/06/23 13:49:04;;;;;;;5.18;1.88;;;;;;;23.10;45.76;100845.66;16135088;19;128806;-64
2022/06/23 13:54:41;;;;;;;4.93;1.70;;;;;;;23.12;45.74;100838.66;16131162;19;128882;-65
2022/06/23 14:00:12;;;;;;;4.90;2.00;;;;;;;23.13;45.39;100828.38;16139587;19;129696;-65
2022/06/23 14:05:46;;;;;;;4.53;2.00;;;;;;;23.15;45.25;100832.53;16136205;19;129148;-65
2022/06/23 14:11:22;;;;;;;4.07;1.58;;;;;;;23.16;45.01;100822.19;16137007;19;128999;-65
2022/06/23 14:17:10;;;;;;;5.70;1.60;;;;;;;23.18;45.32;100823.63;16135215;19;129698;-65
2022/06/23 14:22:37;;;;;;;4.00;1.70;;;;;;;23.19;45.13;100813.28;16151478;19;129192;-65
2022/06/23 14:28:16;;;;;;;5.80;2.00;;;;;;;23.20;45.05;100803.78;16150114;19;130288;-65
2022/06/23 14:33:52;;;;;;;3.17;1.70;;;;;;;23.22;44.84;100804.34;16147681;19;129042;-65
2022/06/23 14:39:19;;;;;;;7.00;1.55;;;;;;;23.24;45.10;100796.53;16149291;19;129457;-64
2022/06/23 14:45:02;;;;;;;8.63;0.90;;;;;;;23.27;44.67;100798.75;16151163;19;129448;-65
2022/06/23 14:50:53;;;;;;;6.22;1.50;;;;;;;23.29;44.56;100798.47;16150743;19;129025;-63
2022/06/23 14:56:33;;;;;;;7.05;1.40;;;;;;;23.29;44.63;100788.13;16146500;19;129444;-65
2022/06/23 15:02:27;;;;;;;5.55;1.30;;;;;;;23.29;44.59;100781.72;16150465;19;129900;-65
2022/06/23 15:07:58;;;;;;;6.63;1.65;;;;;;;23.31;44.34;100785.91;16145202;19;128920;-65
2022/06/23 15:13:28;;;;;;;4.15;1.25;;;;;;;23.34;44.67;100784.50;16145099;19;129675;-64
2022/06/23 15:19:21;;;;;;;2.13;1.40;;;;;;;23.33;44.30;100786.47;16152815;19;129298;-65
2022/06/23 15:25:10;;;;;;;7.93;1.70;;;;;;;23.39;43.44;100776.13;16147365;19;130497;-63
2022/06/23 15:31:15;;;;;;;7.75;1.40;;;;;;;23.43;43.02;100781.97;16148127;19;129561;-64
2022/06/23 15:36:44;;;;;;;6.45;1.98;;;;;;;23.49;42.63;100780.84;16138867;19;130835;-65
2022/06/23 15:42:39;;;;;;;5.82;1.80;;;;;;;23.52;42.94;100763.50;16153881;19;129831;-66
2022/06/23 15:48:13;;;;;;;9.45;1.95;;;;;;;23.57;42.56;100769.09;16144760;19;131530;-64
2022/06/23 15:53:46;;;;;;;8.45;2.38;;;;;;;23.61;42.79;100750.69;16145528;19;129541;-65
2022/06/23 15:59:08;;;;;;;8.77;1.90;;;;;;;23.63;42.64;100748.41;16146507;19;128822;-65
2022/06/23 16:04:35;;;;;;;11.48;2.45;;;;;;;23.65;42.06;100743.41;16141457;19;129428;-64
2022/06/23 16:10:18;;;;;;;7.15;1.83;;;;;;;23.71;41.81;100741.41;16144209;19;129783;-63
2022/06/23 16:15:47;;;;;;;7.97;2.00;;;;;;;23.77;41.88;100747.81;16140134;19;129664;-66
2022/06/23 16:21:35;;;;;;;7.00;1.92;;;;;;;23.84;41.60;100742.78;16143643;19;129531;-67
2022/06/23 16:27:05;;;;;;;8.45;2.50;;;;;;;23.87;41.33;100738.56;16138391;19;129210;-66
2022/06/23 16:32:43;;;;;;;5.88;2.00;;;;;;;23.90;41.12;100730.44;16140220;19;128951;-67
2022/06/23 16:38:16;;;;;;;5.85;1.50;;;;;;;23.94;41.06;100731.53;16124774;19;131527;-67
2022/06/23 16:43:43;;;;;;;5.10;2.22;;;;;;;23.97;40.50;100718.94;16121618;19;129709;-66
2022/06/23 16:49:16;;;;;;;6.85;2.30;;;;;;;23.99;40.34;100716.69;16124319;19;130666;-66
2022/06/23 16:54:46;;;;;;;6.13;1.60;;;;;;;24.00;40.13;100707.19;16130985;19;130787;-67
2022/06/23 17:00:10;;;;;;;6.47;1.95;;;;;;;23.99;40.59;100704.69;16138497;19;129389;-70
2022/06/23 17:05:38;;;;;;;6.57;1.70;;;;;;;23.95;40.22;100699.69;16133242;19;130786;-67
2022/06/23 17:11:27;;;;;;;6.25;1.88;;;;;;;23.96;40.08;100704.16;16136780;19;130185;-68
2022/06/23 17:16:53;;;;;;;8.75;1.90;;;;;;;23.96;40.01;100701.34;16131066;19;130139;-68
2022/06/23 17:22:33;;;;;;;10.38;1.90;;;;;;;23.96;39.97;100712.53;16136880;19;129542;-67
2022/06/23 17:27:58;;;;;;;6.35;1.70;;;;;;;23.97;39.89;100716.16;16135988;19;130206;-67
2022/06/23 17:33:31;;;;;;;7.17;1.77;;;;;;;23.97;39.99;100714.22;15982289;19;2963108;-69
2022/06/23 17:44:57;;;;;;;18.15;2.75;;;;;;;23.95;40.01;100721.19;16134473;19;130100;-67
2022/06/23 17:50:25;;;;;;;6.75;2.00;;;;;;;23.93;39.62;100724.28;16126434;19;131033;-67
2022/06/23 17:55:51;;;;;;;6.35;1.55;;;;;;;23.92;39.79;100713.41;16135272;19;129887;-69
2022/06/23 18:01:17;;;;;;;7.80;1.77;;;;;;;23.91;39.98;100718.13;16140601;19;129234;-67
2022/06/23 18:06:47;;;;;;;6.38;2.00;;;;;;;23.87;40.21;100714.28;16148262;19;129525;-66
2022/06/23 18:12:11;;;;;;;5.72;1.88;;;;;;;23.85;40.64;100721.25;16151200;19;129087;-66
2022/06/23 18:17:52;;;;;;;5.90;1.67;;;;;;;23.83;40.42;100724.34;16145594;19;129256;-66
2022/06/23 18:23:22;;;;;;;2.88;1.50;;;;;;;23.79;41.29;100734.41;16145520;19;129182;-66
2022/06/23 18:28:44;;;;;;;5.40;1.70;;;;;;;23.74;41.14;100732.47;16151981;19;129396;-67
2022/06/23 18:34:23;;;;;;;5.57;1.77;;;;;;;23.71;41.36;100727.44;16149214;19;130333;-67
2022/06/23 18:39:54;;;;;;;6.70;1.55;;;;;;;23.69;41.59;100726.06;16150821;19;130480;-68
2022/06/23 18:45:25;;;;;;;8.75;1.77;;;;;;;23.66;41.90;100731.09;16150199;19;129091;-67
2022/06/23 18:51:12;;;;;;;9.55;2.40;;;;;;;23.64;42.06;100727.75;16149105;19;129861;-66
2022/06/23 18:56:51;;;;;;;9.52;2.22;;;;;;;23.62;42.03;100724.44;16144409;19;129215;-66
2022/06/23 19:02:12;;;;;;;11.27;1.88;;;;;;;23.60;41.94;100726.69;16144449;19;130380;-67
2022/06/23 19:07:47;;;;;;;20.17;2.33;;;;;;;23.62;42.63;100724.44;16147289;19;129173;-67
2022/06/23 19:13:30;;;;;;;6.68;1.60;;;;;;;23.62;41.99;100718.00;16146742;19;129078;-68
2022/06/23 19:19:11;;;;;;;9.38;1.92;;;;;;;23.60;42.25;100717.44;16147007;19;129424;-68
2022/06/23 19:24:49;;;;;;;10.00;3.72;;;;;;;23.60;42.20;100709.91;16148366;19;129301;-68
2022/06/23 19:30:15;;;;;;;11.75;2.50;;;;;;;23.63;42.05;100734.47;16148777;19;129196;-67
2022/06/23 19:35:52;;;;;;;15.50;2.60;;;;;;;23.66;42.20;100736.69;16138077;19;132749;-68
2022/06/23 19:41:19;;;;;;;6.53;2.20;;;;;;;23.68;42.26;100738.38;16142438;19;130064;-69
2022/06/23 19:46:49;;;;;;;9.82;1.73;;;;;;;23.69;42.02;100734.44;16145675;19;129816;-71
2022/06/23 19:52:26;;;;;;;17.50;1.85;;;;;;;23.72;42.21;100729.13;16145902;19;128889;-68
2022/06/23 19:57:54;;;;;;;11.13;1.80;;;;;;;23.72;41.89;100731.09;16141667;19;131677;-69
2022/06/23 20:03:22;;;;;;;14.20;1.95;;;;;;;23.72;41.74;100725.50;16144684;19;129730;-69
2022/06/23 20:08:54;;;;;;;12.82;2.13;;;;;;;23.72;42.27;100717.94;16145182;19;128956;-69
2022/06/23 20:14:34;;;;;;;16.17;2.10;;;;;;;23.74;42.25;100709.31;16138854;19;129280;-69
2022/06/23 20:20:12;;;;;;;8.35;1.70;;;;;;;23.72;42.92;100703.16;16137994;19;129749;-68
2022/06/23 20:25:54;;;;;;;5.30;1.45;;;;;;;23.74;42.74;100703.72;16143495;19;129632;-68
2022/06/23 20:31:43;;;;;;;9.90;1.77;;;;;;;23.74;43.19;100686.97;16142774;19;131254;-69
2022/06/23 20:37:17;;;;;;;7.88;2.08;;;;;;;23.74;43.10;100664.63;16135960;19;129529;-69
2022/06/23 20:42:57;;;;;;;6.60;1.75;;;;;;;23.71;43.48;100671.59;16140986;19;129577;-67
2022/06/23 20:48:18;;;;;;;9.50;1.85;;;;;;;23.71;43.72;100676.34;16136823;19;129224;-69
2022/06/23 20:53:46;;;;;;;8.00;1.52;;;;;;;23.70;43.87;100681.09;16139959;19;129612;-69
2022/06/23 20:59:26;;;;;;;6.28;1.42;;;;;;;23.71;43.87;100679.16;16135819;19;129769;-69
2022/06/23 21:05:26;;;;;;;5.68;1.67;;;;;;;23.68;43.87;100668.53;16140363;19;130408;-69
2022/06/23 21:11:03;;;;;;;5.82;1.38;;;;;;;23.66;44.01;100666.88;16141175;19;129415;-69
2022/06/23 21:16:34;;;;;;;6.55;1.70;;;;;;;23.65;44.13;100665.19;16138040;19;129747;-69
2022/06/23 21:22:32;;;;;;;6.63;1.50;;;;;;;23.66;44.25;100663.25;16139639;19;129178;-69
2022/06/23 21:27:56;;;;;;;3.92;1.25;;;;;;;23.63;44.31;100659.06;16138523;19;129539;-68
2022/06/23 21:33:26;;;;;;;5.93;1.30;;;;;;;23.63;44.26;100645.09;16139758;19;129026;-68
2022/06/23 21:39:06;;;;;;;9.32;1.58;;;;;;;23.64;44.58;100652.34;16133245;19;129337;-68
2022/06/23 21:44:40;;;;;;;3.72;1.70;;;;;;;23.64;44.77;100649.56;16137262;19;129094;-68
2022/06/23 21:50:22;;;;;;;8.20;1.30;;;;;;;23.62;44.46;100643.47;16139087;19;129350;-68
2022/06/23 21:55:54;;;;;;;6.82;1.48;;;;;;;23.62;44.32;100645.41;16137152;19;129071;-68
2022/06/23 22:01:39;;;;;;;11.07;1.50;;;;;;;23.62;44.47;100673.31;16132789;19;129598;-68
2022/06/23 22:07:08;;;;;;;8.25;1.70;;;;;;;23.60;44.26;100676.41;16134195;19;129101;-68
2022/06/23 22:12:37;;;;;;;7.05;1.42;;;;;;;23.57;44.37;100692.88;16137431;19;129729;-68
2022/06/23 22:17:59;;;;;;;3.10;1.40;;;;;;;23.54;44.74;100671.94;16129986;19;129474;-68
2022/06/23 22:26:05;;;;;;;4.22;1.45;;;;;;;23.54;44.21;100671.94;16135988;19;129576;-68
2022/06/23 22:29:15;;;;;;;6.75;1.90;;;;;;;23.52;44.62;100688.13;16141125;19;129705;-67
2022/06/23 22:34:38;;;;;;;4.15;1.73;;;;;;;23.49;44.79;100709.09;16135213;19;130390;-68
2022/06/23 22:40:00;;;;;;;6.88;1.80;;;;;;;23.48;44.87;100689.84;16152125;19;129394;-68
2022/06/23 22:45:52;;;;;;;5.18;1.20;;;;;;;23.49;45.22;100699.88;16153850;19;128968;-68
2022/06/23 22:51:34;;;;;;;5.10;1.63;;;;;;;23.45;45.09;100702.38;16156770;19;129437;-67
2022/06/23 22:56:57;;;;;;;2.40;1.08;;;;;;;23.44;45.04;100702.69;16152335;19;129116;-67
2022/06/23 23:02:19;;;;;;;3.67;1.42;;;;;;;23.43;44.97;100689.84;16161397;19;129193;-68
2022/06/23 23:08:11;;;;;;;2.40;0.90;;;;;;;23.43;45.16;100692.63;16162480;19;129611;-68
2022/06/23 23:13:33;;;;;;;1.77;1.05;;;;;;;23.41;44.92;100694.88;16167346;19;128788;-67
2022/06/23 23:18:57;;;;;;;2.35;1.02;;;;;;;23.41;45.18;100692.09;16177764;19;129379;-67
2022/06/23 23:24:24;;;;;;;4.95;1.30;;;;;;;23.41;45.23;100694.88;16229135;19;129343;-68
2022/06/23 23:29:58;;;;;;;2.38;1.23;;;;;;;23.40;45.27;100680.09;16228945;19;129115;-67
2022/06/23 23:35:43;;;;;;;4.82;1.08;;;;;;;23.39;45.24;100697.97;16225472;19;129241;-68
2022/06/23 23:41:09;;;;;;;3.53;1.30;;;;;;;23.39;45.49;100713.84;16227932;19;128083;-68
2022/06/23 23:46:38;;;;;;;1.58;0.93;;;;;;;23.40;45.12;100718.31;16227518;19;128592;-68
2022/06/23 23:52:01;;;;;;;5.13;1.10;;;;;;;23.38;45.30;100734.53;16223760;19;128876;-68
2022/06/23 23:57:23;;;;;;;1.05;0.80;;;;;;;23.37;45.32;100760.78;16222520;19;129840;-68
